createdAt,value
2023-10-30T00:00:33.803Z,980.03
2023-10-30T00:01:33.728Z,980.10
2023-10-30T00:02:33.736Z,980.07
2023-10-30T00:03:33.767Z,980.17
2023-10-30T00:04:33.669Z,980.20
2023-10-30T00:05:33.670Z,980.15
2023-10-30T00:06:33.683Z,980.10
2023-10-30T00:07:33.669Z,980.15
2023-10-30T00:08:33.637Z,980.10
2023-10-30T00:09:33.726Z,979.99
2023-10-30T00:10:33.602Z,980.01
2023-10-30T00:11:33.599Z,980.01
2023-10-30T00:12:33.649Z,980.01
2023-10-30T00:13:33.582Z,980.08
2023-10-30T00:14:33.564Z,980.10
2023-10-30T00:15:33.570Z,980.11
2023-10-30T00:16:33.566Z,980.15
2023-10-30T00:17:33.563Z,980.21
2023-10-30T00:18:33.552Z,980.26
2023-10-30T00:19:33.514Z,980.27
2023-10-30T00:20:33.504Z,980.28
2023-10-30T00:21:33.570Z,980.27
2023-10-30T00:22:33.487Z,980.32
2023-10-30T00:23:33.472Z,980.32
2023-10-30T00:24:33.555Z,980.30
2023-10-30T00:25:33.456Z,980.28
2023-10-30T00:26:33.449Z,980.41
2023-10-30T00:27:33.453Z,980.38
2023-10-30T00:28:33.413Z,980.29
2023-10-30T00:29:33.402Z,980.38
2023-10-30T00:30:33.436Z,980.33
2023-10-30T00:31:33.442Z,980.41
2023-10-30T00:32:33.407Z,980.42
2023-10-30T00:33:33.391Z,980.44
2023-10-30T00:34:33.342Z,980.46
2023-10-30T00:35:33.339Z,980.42
2023-10-30T00:36:33.387Z,980.46
2023-10-30T00:37:33.313Z,980.42
2023-10-30T00:38:33.307Z,980.49
2023-10-30T00:39:33.356Z,980.51
2023-10-30T00:40:33.280Z,980.64
2023-10-30T00:41:33.280Z,980.59
2023-10-30T00:42:33.323Z,980.55
2023-10-30T00:43:33.266Z,980.59
2023-10-30T00:44:33.294Z,980.55
2023-10-30T00:45:33.341Z,980.54
2023-10-30T00:46:33.242Z,980.53
2023-10-30T00:47:33.311Z,980.52
2023-10-30T00:48:33.289Z,980.55
2023-10-30T00:49:33.187Z,980.48
2023-10-30T00:50:33.183Z,980.49
2023-10-30T00:51:33.226Z,980.54
2023-10-30T00:52:33.169Z,980.55
2023-10-30T00:53:33.144Z,980.56
2023-10-30T00:54:33.149Z,980.53
2023-10-30T00:55:33.134Z,980.62
2023-10-30T00:56:33.105Z,980.70
2023-10-30T00:57:33.188Z,980.67
2023-10-30T00:58:33.098Z,980.71
2023-10-30T00:59:33.103Z,980.72
2023-10-30T01:00:33.120Z,980.73
2023-10-30T01:01:33.062Z,980.69
2023-10-30T01:02:33.389Z,980.59
2023-10-30T01:03:33.142Z,980.62
2023-10-30T01:04:33.317Z,980.68
2023-10-30T01:05:33.015Z,980.70
2023-10-30T01:06:33.015Z,980.64
2023-10-30T01:07:32.999Z,980.70
2023-10-30T01:08:32.988Z,980.71
2023-10-30T01:09:33.034Z,980.68
2023-10-30T01:10:32.959Z,980.59
2023-10-30T01:11:32.957Z,980.53
2023-10-30T01:12:32.972Z,980.53
2023-10-30T01:13:32.959Z,980.59
2023-10-30T01:14:32.925Z,980.54
2023-10-30T01:15:32.936Z,980.56
2023-10-30T01:16:32.919Z,980.50
2023-10-30T01:17:32.925Z,980.44
2023-10-30T01:18:32.900Z,980.52
2023-10-30T01:19:32.876Z,980.42
2023-10-30T01:20:32.890Z,980.39
2023-10-30T01:21:32.863Z,980.42
2023-10-30T01:22:32.823Z,980.39
2023-10-30T01:23:32.834Z,980.44
2023-10-30T01:24:32.854Z,980.46
2023-10-30T01:25:32.816Z,980.46
2023-10-30T01:26:32.815Z,980.44
2023-10-30T01:27:32.819Z,980.35
2023-10-30T01:28:32.789Z,980.39
2023-10-30T01:29:32.759Z,980.42
2023-10-30T01:30:32.746Z,980.41
2023-10-30T01:31:32.763Z,980.42
2023-10-30T01:32:32.752Z,980.37
2023-10-30T01:33:32.860Z,980.37
2023-10-30T01:34:32.776Z,980.39
2023-10-30T01:35:32.756Z,980.46
2023-10-30T01:36:32.752Z,980.44
2023-10-30T01:37:32.691Z,980.41
2023-10-30T01:38:32.656Z,980.45
2023-10-30T01:39:32.695Z,980.44
2023-10-30T01:40:32.634Z,980.39
2023-10-30T01:41:32.625Z,980.45
2023-10-30T01:42:32.667Z,980.48
2023-10-30T01:43:32.618Z,980.37
2023-10-30T01:44:32.601Z,980.43
2023-10-30T01:45:32.656Z,980.49
2023-10-30T01:46:32.638Z,980.53
2023-10-30T01:47:32.621Z,980.48
2023-10-30T01:48:32.617Z,980.56
2023-10-30T01:49:32.542Z,980.54
2023-10-30T01:50:32.538Z,980.47
2023-10-30T01:51:32.615Z,980.39
2023-10-30T01:52:32.514Z,980.26
2023-10-30T01:53:32.505Z,980.31
2023-10-30T01:54:32.535Z,980.24
2023-10-30T01:55:32.497Z,980.11
2023-10-30T01:56:32.485Z,980.13
2023-10-30T01:57:32.590Z,980.12
2023-10-30T01:58:32.449Z,980.19
2023-10-30T01:59:32.443Z,980.20
2023-10-30T02:00:32.480Z,980.26
2023-10-30T02:01:32.475Z,980.42
2023-10-30T02:02:32.480Z,980.18
2023-10-30T02:03:32.525Z,980.34
2023-10-30T02:04:32.407Z,980.33
2023-10-30T02:05:32.376Z,980.37
2023-10-30T02:06:32.415Z,980.38
2023-10-30T02:07:32.344Z,980.35
2023-10-30T02:08:32.359Z,980.40
2023-10-30T02:09:32.398Z,980.43
2023-10-30T02:10:32.353Z,980.44
2023-10-30T02:11:32.307Z,980.46
2023-10-30T02:12:32.329Z,980.49
2023-10-30T02:13:32.277Z,980.48
2023-10-30T02:14:32.284Z,980.59
2023-10-30T02:15:32.380Z,980.51
2023-10-30T02:16:32.306Z,980.50
2023-10-30T02:17:32.295Z,980.56
2023-10-30T02:18:32.306Z,980.52
2023-10-30T02:19:32.231Z,980.50
2023-10-30T02:20:32.218Z,980.47
2023-10-30T02:21:32.234Z,980.53
2023-10-30T02:22:32.184Z,980.42
2023-10-30T02:23:32.175Z,980.39
2023-10-30T02:24:32.229Z,980.37
2023-10-30T02:25:32.151Z,980.37
2023-10-30T02:26:32.184Z,980.33
2023-10-30T02:27:32.154Z,980.43
2023-10-30T02:28:32.125Z,980.44
2023-10-30T02:29:32.123Z,980.30
2023-10-30T02:30:32.149Z,980.40
2023-10-30T02:31:32.087Z,980.37
2023-10-30T02:32:32.087Z,980.48
2023-10-30T02:33:32.117Z,980.42
2023-10-30T02:34:32.110Z,980.42
2023-10-30T02:35:32.041Z,980.45
2023-10-30T02:36:32.060Z,980.52
2023-10-30T02:37:32.025Z,980.36
2023-10-30T02:38:32.024Z,980.39
2023-10-30T02:39:32.030Z,980.48
2023-10-30T02:40:31.995Z,980.37
2023-10-30T02:41:32.016Z,980.35
2023-10-30T02:42:32.011Z,980.33
2023-10-30T02:43:31.978Z,980.25
2023-10-30T02:44:31.972Z,980.38
2023-10-30T02:45:32.085Z,980.33
2023-10-30T02:46:31.977Z,980.30
2023-10-30T02:47:31.937Z,980.36
2023-10-30T02:48:31.976Z,980.31
2023-10-30T02:49:31.900Z,980.33
2023-10-30T02:50:31.890Z,980.44
2023-10-30T02:51:31.905Z,980.39
2023-10-30T02:52:31.887Z,980.54
2023-10-30T02:53:31.899Z,980.48
2023-10-30T02:54:31.893Z,980.44
2023-10-30T02:55:31.829Z,980.50
2023-10-30T02:56:31.840Z,980.54
2023-10-30T02:57:31.829Z,980.54
2023-10-30T02:58:31.802Z,980.59
2023-10-30T02:59:31.819Z,980.50
2023-10-30T03:00:31.841Z,980.55
2023-10-30T03:01:31.763Z,980.43
2023-10-30T03:02:31.819Z,980.40
2023-10-30T03:03:31.944Z,980.46
2023-10-30T03:04:31.881Z,980.48
2023-10-30T03:05:31.726Z,980.37
2023-10-30T03:06:31.844Z,980.34
2023-10-30T03:07:31.722Z,980.43
2023-10-30T03:08:31.719Z,980.47
2023-10-30T03:09:31.691Z,980.45
2023-10-30T03:10:31.692Z,980.42
2023-10-30T03:11:31.690Z,980.42
2023-10-30T03:12:31.663Z,980.48
2023-10-30T03:13:31.642Z,980.58
2023-10-30T03:14:31.632Z,980.50
2023-10-30T03:15:31.648Z,980.43
2023-10-30T03:16:31.630Z,980.44
2023-10-30T03:17:31.661Z,980.47
2023-10-30T03:18:31.661Z,980.41
2023-10-30T03:19:31.586Z,980.34
2023-10-30T03:20:31.587Z,980.37
2023-10-30T03:21:31.589Z,980.40
2023-10-30T03:22:31.560Z,980.45
2023-10-30T03:23:31.542Z,980.49
2023-10-30T03:24:31.591Z,980.49
2023-10-30T03:25:31.576Z,980.53
2023-10-30T03:26:31.510Z,980.57
2023-10-30T03:27:31.528Z,980.62
2023-10-30T03:28:31.490Z,980.64
2023-10-30T03:29:31.479Z,980.58
2023-10-30T03:30:31.539Z,980.54
2023-10-30T03:31:31.459Z,980.52
2023-10-30T03:32:31.466Z,980.45
2023-10-30T03:33:31.483Z,980.45
2023-10-30T03:34:31.534Z,980.45
2023-10-30T03:35:31.425Z,980.45
2023-10-30T03:36:31.461Z,980.42
2023-10-30T03:37:31.391Z,980.25
2023-10-30T03:38:31.381Z,980.23
2023-10-30T03:39:31.412Z,980.32
2023-10-30T03:40:31.360Z,980.40
2023-10-30T03:41:31.350Z,980.31
2023-10-30T03:42:31.364Z,980.30
2023-10-30T03:43:31.371Z,980.28
2023-10-30T03:44:31.328Z,980.29
2023-10-30T03:45:31.367Z,980.20
2023-10-30T03:46:31.347Z,980.15
2023-10-30T03:47:31.287Z,980.16
2023-10-30T03:48:31.298Z,980.21
2023-10-30T03:49:31.285Z,980.20
2023-10-30T03:50:31.256Z,980.26
2023-10-30T03:51:31.328Z,980.29
2023-10-30T03:52:31.252Z,980.24
2023-10-30T03:53:31.240Z,980.34
2023-10-30T03:54:31.280Z,980.26
2023-10-30T03:55:31.230Z,980.25
2023-10-30T03:56:31.192Z,980.40
2023-10-30T03:57:31.230Z,980.51
2023-10-30T03:58:31.181Z,980.57
2023-10-30T03:59:31.164Z,980.60
2023-10-30T04:00:31.224Z,980.66
2023-10-30T04:01:31.187Z,980.63
2023-10-30T04:02:31.143Z,980.57
2023-10-30T04:03:31.193Z,980.57
2023-10-30T04:04:31.148Z,980.51
2023-10-30T04:05:31.103Z,980.61
2023-10-30T04:06:31.162Z,980.63
2023-10-30T04:07:31.077Z,980.65
2023-10-30T04:08:31.076Z,980.56
2023-10-30T04:09:31.063Z,980.52
2023-10-30T04:10:31.079Z,980.50
2023-10-30T04:11:31.036Z,980.40
2023-10-30T04:12:31.079Z,980.43
2023-10-30T04:13:31.005Z,980.47
2023-10-30T04:14:30.995Z,980.49
2023-10-30T04:15:30.992Z,980.62
2023-10-30T04:16:31.059Z,980.60
2023-10-30T04:17:30.989Z,980.61
2023-10-30T04:18:30.967Z,980.61
2023-10-30T04:19:30.941Z,980.64
2023-10-30T04:20:30.956Z,980.64
2023-10-30T04:21:31.030Z,980.61
2023-10-30T04:22:30.911Z,980.50
2023-10-30T04:23:30.912Z,980.41
2023-10-30T04:24:30.924Z,980.48
2023-10-30T04:25:30.877Z,980.59
2023-10-30T04:26:30.903Z,980.55
2023-10-30T04:27:30.916Z,980.60
2023-10-30T04:28:30.851Z,980.53
2023-10-30T04:29:30.836Z,980.48
2023-10-30T04:30:30.852Z,980.49
2023-10-30T04:31:30.889Z,980.55
2023-10-30T04:32:30.819Z,980.53
2023-10-30T04:33:30.897Z,980.48
2023-10-30T04:34:30.804Z,980.44
2023-10-30T04:35:30.782Z,980.57
2023-10-30T04:36:30.803Z,980.61
2023-10-30T04:37:30.754Z,980.70
2023-10-30T04:38:30.739Z,980.74
2023-10-30T04:39:30.788Z,980.72
2023-10-30T04:40:30.754Z,980.76
2023-10-30T04:41:30.716Z,980.80
2023-10-30T04:42:30.740Z,980.73
2023-10-30T04:43:30.687Z,980.74
2023-10-30T04:44:30.672Z,980.69
2023-10-30T04:45:30.699Z,980.76
2023-10-30T04:46:30.677Z,980.73
2023-10-30T04:47:30.649Z,980.74
2023-10-30T04:48:30.662Z,980.71
2023-10-30T04:49:30.637Z,980.75
2023-10-30T04:50:30.620Z,980.73
2023-10-30T04:51:30.635Z,980.70
2023-10-30T04:52:30.581Z,980.67
2023-10-30T04:53:30.596Z,980.70
2023-10-30T04:54:30.658Z,980.79
2023-10-30T04:55:30.562Z,980.77
2023-10-30T04:56:30.556Z,980.73
2023-10-30T04:57:30.557Z,980.68
2023-10-30T04:58:30.529Z,980.65
2023-10-30T04:59:30.525Z,980.67
2023-10-30T05:00:30.533Z,980.55
2023-10-30T05:01:30.545Z,980.50
2023-10-30T05:02:30.554Z,980.52
2023-10-30T05:03:30.482Z,980.53
2023-10-30T05:04:30.525Z,980.49
2023-10-30T05:05:30.465Z,980.52
2023-10-30T05:06:30.468Z,980.58
2023-10-30T05:07:30.462Z,980.49
2023-10-30T05:08:30.422Z,980.46
2023-10-30T05:09:30.443Z,980.41
2023-10-30T05:10:30.398Z,980.42
2023-10-30T05:11:30.389Z,980.38
2023-10-30T05:12:30.388Z,980.42
2023-10-30T05:13:30.408Z,980.42
2023-10-30T05:14:30.353Z,980.45
2023-10-30T05:15:30.437Z,980.38
2023-10-30T05:16:30.341Z,980.42
2023-10-30T05:17:30.359Z,980.49
2023-10-30T05:18:30.338Z,980.54
2023-10-30T05:19:30.361Z,980.42
2023-10-30T05:20:30.284Z,980.52
2023-10-30T05:21:30.315Z,980.51
2023-10-30T05:22:39.131Z,980.39
2023-10-30T05:23:39.153Z,980.41
2023-10-30T05:24:39.724Z,980.49
2023-10-30T05:25:43.252Z,980.45
2023-10-30T05:26:40.253Z,980.42
2023-10-30T05:27:38.888Z,980.45
2023-10-30T05:28:39.355Z,980.45
2023-10-30T05:29:39.343Z,980.46
2023-10-30T05:30:39.450Z,980.47
2023-10-30T05:31:39.484Z,980.60
2023-10-30T05:32:38.977Z,980.50
2023-10-30T05:33:30.185Z,980.53
2023-10-30T05:34:30.137Z,980.45
2023-10-30T05:35:30.131Z,980.45
2023-10-30T05:36:30.162Z,980.43
2023-10-30T05:37:30.132Z,980.35
2023-10-30T05:38:30.090Z,980.37
2023-10-30T05:39:30.134Z,980.38
2023-10-30T05:40:30.074Z,980.33
2023-10-30T05:41:30.083Z,980.31
2023-10-30T05:42:30.094Z,980.28
2023-10-30T05:43:30.040Z,980.37
2023-10-30T05:44:30.031Z,980.34
2023-10-30T05:45:30.075Z,980.32
2023-10-30T05:46:30.052Z,980.28
2023-10-30T05:47:30.049Z,980.22
2023-10-30T05:48:30.036Z,980.25
2023-10-30T05:49:29.975Z,980.26
2023-10-30T05:50:29.975Z,980.10
2023-10-30T05:51:29.999Z,980.08
2023-10-30T05:52:29.941Z,980.07
2023-10-30T05:53:29.944Z,980.05
2023-10-30T05:54:29.968Z,980.13
2023-10-30T05:55:29.928Z,980.32
2023-10-30T05:56:29.908Z,980.24
2023-10-30T05:57:29.921Z,980.35
2023-10-30T05:58:29.880Z,980.36
2023-10-30T05:59:29.881Z,980.28
2023-10-30T06:00:29.893Z,980.34
2023-10-30T06:01:29.897Z,980.31
2023-10-30T06:02:29.857Z,980.31
2023-10-30T06:03:29.897Z,980.24
2023-10-30T06:04:29.840Z,980.33
2023-10-30T06:05:29.832Z,980.34
2023-10-30T06:06:29.859Z,980.42
2023-10-30T06:07:29.780Z,980.51
2023-10-30T06:08:29.792Z,980.58
2023-10-30T06:09:29.815Z,980.66
2023-10-30T06:10:29.863Z,980.64
2023-10-30T06:11:29.756Z,980.69
2023-10-30T06:12:29.746Z,980.71
2023-10-30T06:13:29.720Z,980.71
2023-10-30T06:14:29.800Z,980.71
2023-10-30T06:15:29.766Z,980.67
2023-10-30T06:16:29.723Z,980.66
2023-10-30T06:17:29.763Z,980.71
2023-10-30T06:18:29.740Z,980.70
2023-10-30T06:19:29.706Z,980.82
2023-10-30T06:20:29.679Z,980.78
2023-10-30T06:21:29.703Z,980.76
2023-10-30T06:22:31.616Z,980.81
2023-10-30T06:23:29.668Z,980.84
2023-10-30T06:24:29.721Z,980.87
2023-10-30T06:25:29.595Z,980.92
2023-10-30T06:26:29.607Z,980.89
2023-10-30T06:27:29.643Z,980.89
2023-10-30T06:28:29.587Z,980.92
2023-10-30T06:29:29.587Z,980.91
2023-10-30T06:30:29.653Z,980.91
2023-10-30T06:31:29.560Z,980.93
2023-10-30T06:32:29.555Z,980.95
2023-10-30T06:33:29.575Z,980.95
2023-10-30T06:34:29.563Z,981.01
2023-10-30T06:35:30.759Z,981.08
2023-10-30T06:36:30.781Z,980.99
2023-10-30T06:37:30.826Z,981.10
2023-10-30T06:38:30.683Z,981.08
2023-10-30T06:39:30.658Z,981.05
2023-10-30T06:40:30.657Z,981.12
2023-10-30T06:41:30.631Z,981.22
2023-10-30T06:42:30.748Z,981.19
2023-10-30T06:43:30.595Z,981.19
2023-10-30T06:44:30.642Z,981.24
2023-10-30T06:45:30.614Z,981.24
2023-10-30T06:46:30.674Z,981.16
2023-10-30T06:47:30.625Z,981.27
2023-10-30T06:48:30.621Z,981.33
2023-10-30T06:49:30.657Z,981.19
2023-10-30T06:50:30.575Z,981.20
2023-10-30T06:51:30.596Z,981.23
2023-10-30T06:52:31.094Z,981.31
2023-10-30T06:53:30.475Z,981.31
2023-10-30T06:54:30.534Z,981.26
2023-10-30T06:55:30.540Z,981.27
2023-10-30T06:56:30.542Z,981.31
2023-10-30T06:57:30.586Z,981.30
2023-10-30T06:58:30.483Z,981.26
2023-10-30T06:59:30.488Z,981.27
2023-10-30T07:00:30.598Z,981.29
2023-10-30T07:01:31.507Z,981.22
2023-10-30T07:02:30.529Z,981.27
2023-10-30T07:03:30.572Z,981.25
2023-10-30T07:04:30.604Z,981.29
2023-10-30T07:05:30.395Z,981.24
2023-10-30T07:06:30.404Z,981.26
2023-10-30T07:07:30.459Z,981.26
2023-10-30T07:08:30.453Z,981.25
2023-10-30T07:09:30.468Z,981.31
2023-10-30T07:10:30.357Z,981.21
2023-10-30T07:11:30.413Z,981.21
2023-10-30T07:12:30.379Z,981.28
2023-10-30T07:13:30.345Z,981.21
2023-10-30T07:14:30.325Z,981.23
2023-10-30T07:15:30.401Z,981.26
2023-10-30T07:16:30.361Z,981.22
2023-10-30T07:17:30.382Z,981.18
2023-10-30T07:18:30.382Z,981.17
2023-10-30T07:19:30.300Z,981.17
2023-10-30T07:20:30.301Z,981.15
2023-10-30T07:21:30.310Z,981.06
2023-10-30T07:22:30.290Z,981.03
2023-10-30T07:23:30.261Z,981.05
2023-10-30T07:24:30.354Z,981.03
2023-10-30T07:25:30.301Z,980.95
2023-10-30T07:26:30.177Z,981.06
2023-10-30T07:27:30.225Z,981.01
2023-10-30T07:28:31.278Z,981.04
2023-10-30T07:29:30.171Z,980.96
2023-10-30T07:30:30.210Z,980.94
2023-10-30T07:31:30.958Z,980.97
2023-10-30T07:32:30.193Z,980.90
2023-10-30T07:33:30.190Z,980.85
2023-10-30T07:34:30.145Z,980.88
2023-10-30T07:35:30.140Z,980.96
2023-10-30T07:36:30.167Z,980.94
2023-10-30T07:37:30.045Z,980.85
2023-10-30T07:38:30.042Z,980.87
2023-10-30T07:39:30.096Z,980.82
2023-10-30T07:40:30.036Z,980.84
2023-10-30T07:41:30.028Z,980.81
2023-10-30T07:42:30.110Z,980.88
2023-10-30T07:43:30.001Z,980.88
2023-10-30T07:44:30.006Z,980.86
2023-10-30T07:45:30.133Z,980.88
2023-10-30T07:46:30.082Z,980.85
2023-10-30T07:47:43.136Z,980.84
2023-10-30T07:48:32.003Z,980.85
2023-10-30T07:49:29.963Z,980.84
2023-10-30T07:50:30.195Z,980.83
2023-10-30T07:51:29.933Z,980.86
2023-10-30T07:52:29.934Z,980.85
2023-10-30T07:53:29.921Z,980.90
2023-10-30T07:54:29.955Z,980.85
2023-10-30T07:55:29.888Z,980.93
2023-10-30T07:56:29.909Z,981.02
2023-10-30T07:57:29.911Z,980.91
2023-10-30T07:58:30.005Z,981.00
2023-10-30T07:59:29.801Z,981.03
2023-10-30T08:00:30.603Z,980.99
2023-10-30T08:01:29.968Z,981.05
2023-10-30T08:02:29.896Z,980.99
2023-10-30T08:03:30.001Z,981.04
2023-10-30T08:04:29.960Z,980.99
2023-10-30T08:05:29.777Z,981.08
2023-10-30T08:06:29.789Z,981.03
2023-10-30T08:07:29.769Z,981.10
2023-10-30T08:08:29.859Z,981.12
2023-10-30T08:09:29.806Z,981.18
2023-10-30T08:10:29.773Z,981.06
2023-10-30T08:11:29.729Z,981.13
2023-10-30T08:12:29.930Z,981.14
2023-10-30T08:13:30.536Z,981.05
2023-10-30T08:14:29.706Z,981.01
2023-10-30T08:15:29.734Z,981.03
2023-10-30T08:16:29.755Z,980.98
2023-10-30T08:17:29.723Z,980.94
2023-10-30T08:18:29.684Z,981.04
2023-10-30T08:19:29.678Z,981.07
2023-10-30T08:20:29.620Z,981.00
2023-10-30T08:21:29.679Z,981.03
2023-10-30T08:22:29.652Z,981.03
2023-10-30T08:23:29.577Z,980.94
2023-10-30T08:24:29.618Z,980.97
2023-10-30T08:25:29.602Z,981.07
2023-10-30T08:26:29.586Z,980.99
2023-10-30T08:27:29.602Z,981.00
2023-10-30T08:28:29.543Z,980.95
2023-10-30T08:29:29.525Z,981.01
2023-10-30T08:30:29.611Z,981.00
2023-10-30T08:31:29.609Z,981.13
2023-10-30T08:32:29.556Z,981.10
2023-10-30T08:33:29.543Z,981.26
2023-10-30T08:34:29.481Z,981.17
2023-10-30T08:35:29.596Z,981.10
2023-10-30T08:36:29.544Z,981.08
2023-10-30T08:37:29.483Z,981.04
2023-10-30T08:38:29.635Z,981.16
2023-10-30T08:39:29.518Z,981.14
2023-10-30T08:40:29.673Z,981.24
2023-10-30T08:41:29.638Z,981.17
2023-10-30T08:42:29.585Z,981.11
2023-10-30T08:43:29.416Z,981.05
2023-10-30T08:44:31.281Z,981.20
2023-10-30T08:45:30.596Z,981.14
2023-10-30T08:46:29.609Z,981.10
2023-10-30T08:47:29.484Z,981.08
2023-10-30T11:51:40.114Z,979.55
2023-10-30T11:52:39.601Z,979.56
2023-10-30T11:53:39.500Z,979.50
2023-10-30T11:54:39.533Z,979.53
2023-10-30T11:55:39.477Z,979.43
2023-10-30T11:56:39.392Z,979.41
2023-10-30T11:57:39.407Z,979.40
2023-10-30T11:58:39.341Z,979.38
2023-10-30T11:59:39.356Z,979.40
2023-10-30T12:00:39.403Z,979.34
2023-10-30T12:01:39.445Z,979.43
2023-10-30T12:02:39.354Z,979.33
2023-10-30T12:03:39.355Z,979.35
2023-10-30T12:04:39.411Z,979.38
2023-10-30T12:05:39.281Z,979.31
2023-10-30T12:06:39.285Z,979.25
2023-10-30T12:07:39.267Z,979.27
2023-10-30T12:08:39.237Z,979.24
2023-10-30T12:09:39.274Z,979.24
2023-10-30T12:10:39.253Z,979.22
2023-10-30T12:11:39.222Z,979.33
2023-10-30T12:12:39.228Z,979.19
2023-10-30T12:13:39.212Z,979.21
2023-10-30T12:14:39.180Z,979.15
2023-10-30T12:15:39.296Z,979.19
2023-10-30T12:16:39.241Z,979.15
2023-10-30T12:17:39.180Z,979.17
2023-10-30T12:18:39.172Z,979.10
2023-10-30T12:19:39.120Z,979.15
2023-10-30T12:20:39.134Z,979.07
2023-10-30T12:21:39.129Z,979.05
2023-10-30T12:22:39.104Z,979.08
2023-10-30T12:23:39.095Z,979.01
2023-10-30T12:24:39.108Z,978.98
2023-10-30T12:25:39.073Z,978.89
2023-10-30T12:26:39.057Z,978.98
2023-10-30T12:27:39.060Z,978.93
2023-10-30T12:28:39.079Z,978.94
2023-10-30T12:29:39.033Z,978.80
2023-10-30T12:30:39.080Z,978.85
2023-10-30T12:31:39.041Z,978.85
2023-10-30T12:32:39.019Z,978.74
2023-10-30T12:33:39.573Z,978.77
2023-10-30T12:34:38.985Z,978.71
2023-10-30T12:35:38.986Z,978.68
2023-10-30T12:36:39.054Z,978.69
2023-10-30T12:37:38.972Z,978.65
2023-10-30T12:38:38.928Z,978.57
2023-10-30T12:39:38.977Z,978.57
2023-10-30T12:40:38.912Z,978.54
2023-10-30T12:41:38.937Z,978.53
2023-10-30T12:42:38.961Z,978.53
2023-10-30T12:43:38.895Z,978.49
2023-10-30T12:44:38.884Z,978.52
2023-10-30T15:08:40.961Z,976.49
2023-10-30T15:09:36.548Z,976.56
2023-10-30T15:10:36.489Z,976.54
2023-10-30T15:11:40.039Z,976.51
2023-10-30T15:12:36.437Z,976.49
2023-10-30T15:13:36.439Z,976.48
2023-10-30T15:14:36.378Z,976.48
2023-10-30T15:15:36.362Z,976.40
2023-10-30T15:16:36.427Z,976.39
2023-10-30T15:17:37.025Z,976.36
2023-10-30T15:18:36.406Z,976.28
2023-10-30T15:19:36.326Z,976.32
2023-10-30T15:20:36.324Z,976.39
2023-10-30T15:21:36.321Z,976.32
2023-10-30T15:22:36.273Z,976.33
2023-10-30T15:23:36.268Z,976.34
2023-10-30T15:24:36.305Z,976.24
2023-10-30T15:25:36.245Z,976.12
2023-10-30T15:26:36.243Z,976.10
2023-10-30T15:27:36.251Z,976.09
2023-10-30T15:28:36.221Z,976.10
2023-10-30T15:29:36.218Z,976.02
2023-10-30T15:30:36.240Z,975.98
2023-10-30T15:31:36.180Z,975.93
2023-10-30T15:32:36.222Z,975.90
2023-10-30T15:33:36.188Z,975.85
2023-10-30T15:34:36.207Z,975.86
2023-10-30T15:35:36.150Z,975.94
2023-10-30T15:36:36.190Z,975.95
2023-10-30T15:37:36.120Z,975.86
2023-10-30T15:38:36.112Z,975.90
2023-10-30T15:39:36.104Z,975.94
2023-10-30T15:40:36.083Z,975.92
2023-10-30T15:41:36.090Z,975.99
2023-10-30T15:42:36.090Z,976.03
2023-10-30T15:43:36.063Z,976.05
2023-10-30T15:44:36.034Z,976.04
2023-10-30T15:45:36.037Z,976.00
2023-10-30T15:46:45.347Z,976.10
2023-10-30T15:47:37.100Z,976.10
2023-10-30T15:48:36.121Z,976.13
2023-10-30T15:49:35.993Z,976.13
2023-10-30T15:50:35.972Z,976.20
2023-10-30T15:51:35.998Z,976.16
2023-10-30T15:57:35.978Z,976.12
2023-10-30T15:59:35.976Z,976.04
2023-10-30T16:00:35.877Z,976.07
2023-10-30T16:01:35.906Z,976.03
2023-10-30T16:02:35.991Z,976.04
2023-10-30T16:03:36.005Z,976.05
2023-10-30T16:06:36.039Z,976.02
2023-10-30T16:07:35.823Z,976.00
2023-10-30T16:09:35.810Z,975.88
2023-10-30T16:10:35.800Z,975.90
2023-10-30T16:12:35.809Z,975.79
2023-10-30T16:14:35.742Z,975.87
2023-10-30T16:15:35.726Z,975.90
2023-10-30T16:16:35.740Z,975.92
2023-10-30T16:17:35.803Z,975.87
2023-10-30T16:18:35.780Z,975.90
2023-10-30T16:19:35.743Z,975.87
2023-10-30T16:20:36.007Z,975.88
2023-10-30T16:21:35.752Z,975.86
2023-10-30T16:22:35.673Z,975.92
2023-10-30T16:23:35.627Z,975.79
2023-10-30T16:24:35.619Z,975.81
2023-10-30T16:25:35.640Z,975.70
2023-10-30T16:26:35.586Z,975.74
2023-10-30T16:27:35.588Z,975.74
2023-10-30T16:28:35.661Z,975.78
2023-10-30T16:29:35.574Z,975.78
2023-10-30T16:30:35.568Z,975.79
2023-10-30T16:31:35.553Z,975.79
2023-10-30T16:32:35.581Z,975.78
2023-10-30T16:33:35.523Z,975.75
2023-10-30T16:34:35.588Z,975.73
2023-10-30T16:35:35.507Z,975.69
2023-10-30T16:36:35.489Z,975.67
2023-10-30T16:37:35.513Z,975.73
2023-10-30T16:38:35.488Z,975.75
2023-10-30T16:39:35.470Z,975.70
2023-10-30T16:40:35.469Z,975.78
2023-10-30T16:41:35.445Z,975.69
2023-10-30T16:42:35.422Z,975.67
2023-10-30T16:43:35.457Z,975.71
2023-10-30T16:44:35.428Z,975.63
2023-10-30T16:45:35.396Z,975.53
2023-10-30T16:46:35.513Z,975.38
2023-10-30T16:47:35.387Z,975.44
2023-10-30T16:48:35.374Z,975.47
2023-10-30T16:49:35.381Z,975.49
2023-10-30T16:50:35.391Z,975.49
2023-10-30T16:51:35.335Z,975.51
2023-10-30T16:52:35.340Z,975.47
2023-10-30T16:53:35.380Z,975.47
2023-10-30T16:54:35.302Z,975.47
2023-10-30T16:55:35.351Z,975.48
2023-10-30T16:56:35.281Z,975.48
2023-10-30T16:57:35.302Z,975.62
2023-10-30T16:58:35.285Z,975.67
2023-10-30T16:59:35.251Z,975.63
2023-10-30T17:00:35.261Z,975.57
2023-10-30T17:01:35.284Z,975.56
2023-10-30T17:02:35.281Z,975.48
2023-10-30T17:03:35.216Z,975.53
2023-10-30T17:05:35.194Z,975.52
2023-10-30T17:06:35.187Z,975.51
2023-10-30T17:07:35.269Z,975.48
2023-10-30T17:08:35.173Z,975.39
2023-10-30T17:09:35.165Z,975.42
2023-10-30T17:10:35.164Z,975.36
2023-10-30T17:11:35.141Z,975.37
2023-10-30T17:12:35.119Z,975.33
2023-10-30T17:13:35.129Z,975.37
2023-10-30T17:14:35.110Z,975.38
2023-10-30T17:15:35.084Z,975.37
2023-10-30T17:16:35.242Z,975.35
2023-10-30T17:17:35.113Z,975.35
2023-10-30T17:18:35.054Z,975.29
2023-10-30T17:19:35.065Z,975.29
2023-10-30T17:20:35.041Z,975.29
2023-10-30T17:21:35.042Z,975.28
2023-10-30T17:22:35.031Z,975.21
2023-10-30T17:23:35.010Z,975.22
2023-10-30T17:24:35.004Z,975.21
2023-10-30T17:25:35.615Z,975.27
2023-10-30T17:26:34.999Z,975.25
2023-10-30T17:27:34.956Z,975.22
2023-10-30T17:28:35.071Z,975.21
2023-10-30T17:29:34.950Z,975.21
2023-10-30T17:30:34.939Z,975.21
2023-10-30T17:31:35.021Z,975.21
2023-10-30T17:32:34.938Z,975.24
2023-10-30T17:33:34.893Z,975.17
2023-10-30T17:34:34.965Z,975.22
2023-10-30T17:35:34.901Z,975.23
2023-10-30T17:36:34.911Z,975.23
2023-10-30T17:37:34.890Z,975.16
2023-10-30T17:38:34.845Z,975.24
2023-10-30T17:39:34.841Z,975.15
2023-10-30T17:40:34.835Z,975.15
2023-10-30T17:41:34.802Z,975.16
2023-10-30T17:42:34.844Z,975.25
2023-10-30T17:43:34.828Z,975.21
2023-10-30T17:44:34.792Z,975.27
2023-10-30T17:45:34.781Z,975.21
2023-10-30T17:46:34.829Z,975.26
2023-10-30T17:47:34.788Z,975.17
2023-10-30T17:48:34.799Z,975.24
2023-10-30T17:49:34.755Z,975.15
2023-10-30T17:50:34.736Z,975.10
2023-10-30T17:51:34.709Z,975.15
2023-10-30T17:52:34.714Z,975.19
2023-10-30T17:53:34.736Z,975.24
2023-10-30T17:54:36.331Z,975.23
2023-10-30T17:55:34.674Z,975.31
2023-10-30T17:56:34.660Z,975.28
2023-10-30T17:57:34.654Z,975.24
2023-10-30T17:58:34.675Z,975.25
2023-10-30T17:59:34.627Z,975.30
2023-10-30T18:00:34.619Z,975.29
2023-10-30T18:01:34.611Z,975.28
2023-10-30T18:02:34.659Z,975.29
2023-10-30T18:03:34.628Z,975.28
2023-10-30T18:04:34.630Z,975.31
2023-10-30T18:05:34.607Z,975.27
2023-10-30T18:06:34.557Z,975.28